createdAt,value
2018-04-01T00:00:59.704Z,998.63
2018-04-01T00:01:59.614Z,998.61
2018-04-01T00:02:59.448Z,998.58
2018-04-01T00:03:59.486Z,998.56
2018-04-01T00:04:59.289Z,998.60
2018-04-01T00:05:59.344Z,998.60
2018-04-01T00:06:59.155Z,998.59
2018-04-01T00:07:59.143Z,998.64
2018-04-01T00:08:59.004Z,998.64
2018-04-01T00:09:58.954Z,998.60
2018-04-01T00:10:58.829Z,998.60
2018-04-01T00:11:58.800Z,998.59
2018-04-01T00:12:58.685Z,998.58
2018-04-01T00:13:58.666Z,998.56
2018-04-01T00:14:58.486Z,998.56
2018-04-01T00:15:58.483Z,998.61
2018-04-01T00:16:58.353Z,998.58
2018-04-01T00:17:58.284Z,998.65
2018-04-01T00:18:58.162Z,998.62
2018-04-01T00:19:58.197Z,998.58
2018-04-01T00:20:58.018Z,998.61
2018-04-01T00:21:58.059Z,998.63
2018-04-01T00:22:57.856Z,998.62
2018-04-01T00:23:57.888Z,998.63
2018-04-01T00:24:57.692Z,998.68
2018-04-01T00:25:57.721Z,998.67
2018-04-01T00:26:57.540Z,998.66
2018-04-01T00:27:57.459Z,998.70
2018-04-01T00:28:57.361Z,998.69
2018-04-01T00:29:57.338Z,998.67
2018-04-01T00:30:57.198Z,998.70
2018-04-01T00:31:57.189Z,998.69
2018-04-01T00:32:57.039Z,998.76
2018-04-01T00:33:57.060Z,998.79
2018-04-01T00:34:56.879Z,998.76
2018-04-01T00:35:56.870Z,998.80
2018-04-01T00:36:56.738Z,998.79
2018-04-01T00:37:56.721Z,998.77
2018-04-01T00:38:56.568Z,998.80
2018-04-01T00:39:56.634Z,998.84
2018-04-01T00:40:56.389Z,998.85
2018-04-01T00:41:56.395Z,998.85
2018-04-01T00:42:56.265Z,998.85
2018-04-01T00:43:56.204Z,998.88
2018-04-01T00:44:56.072Z,998.89
2018-04-01T00:45:56.116Z,998.90
2018-04-01T00:46:55.911Z,998.94
2018-04-01T00:47:55.958Z,998.92
2018-04-01T00:48:55.773Z,998.93
2018-04-01T00:49:55.738Z,998.91
2018-04-01T00:50:55.593Z,998.91
2018-04-01T00:51:55.538Z,998.92
2018-04-01T00:52:55.433Z,998.92
2018-04-01T00:53:55.488Z,998.89
2018-04-01T00:54:55.269Z,998.91
2018-04-01T00:55:55.270Z,998.96
2018-04-01T00:56:55.194Z,998.90
2018-04-01T00:57:55.079Z,998.93
2018-04-01T00:58:54.956Z,998.89
2018-04-01T00:59:55.798Z,998.88
2018-04-01T01:00:54.784Z,998.93
2018-04-01T01:01:54.793Z,998.92
2018-04-01T01:02:55.217Z,998.90
2018-04-01T01:03:54.622Z,998.93
2018-04-01T01:04:54.476Z,998.96
2018-04-01T01:05:54.505Z,998.91
2018-04-01T01:06:54.294Z,998.96
2018-04-01T01:07:54.313Z,998.96
2018-04-01T01:08:54.155Z,998.94
2018-04-01T01:09:54.152Z,998.92
2018-04-01T01:10:53.972Z,998.95
2018-04-01T01:11:53.952Z,998.95
2018-04-01T01:12:53.826Z,999.02
2018-04-01T01:13:53.855Z,999.01
2018-04-01T01:14:54.635Z,999.02
2018-04-01T01:15:53.652Z,999.06
2018-04-01T01:16:53.546Z,999.05
2018-04-01T01:17:53.498Z,999.05
2018-04-01T01:18:53.332Z,999.05
2018-04-01T01:19:53.303Z,999.03
2018-04-01T01:20:53.169Z,999.04
2018-04-01T01:21:53.177Z,999.04
2018-04-01T01:22:53.002Z,999.04
2018-04-01T01:23:52.982Z,999.07
2018-04-01T01:24:52.861Z,999.06
2018-04-01T01:25:52.797Z,999.05
2018-04-01T01:26:52.685Z,999.01
2018-04-01T01:27:52.705Z,998.97
2018-04-01T01:28:52.545Z,998.98
2018-04-01T01:29:52.648Z,999.01
2018-04-01T01:30:52.380Z,998.97
2018-04-01T01:31:52.324Z,999.00
2018-04-01T01:32:52.256Z,999.00
2018-04-01T01:33:52.231Z,999.01
2018-04-01T01:34:52.061Z,998.95
2018-04-01T01:35:52.275Z,998.97
2018-04-01T01:36:51.874Z,998.98
2018-04-01T01:37:52.462Z,998.99
2018-04-01T01:38:51.719Z,999.03
2018-04-01T01:39:51.765Z,999.06
2018-04-01T01:40:51.560Z,999.09
2018-04-01T01:41:51.566Z,999.05
2018-04-01T01:42:51.383Z,999.06
2018-04-01T01:43:51.376Z,999.12
2018-04-01T01:44:51.226Z,999.13
2018-04-01T01:45:51.217Z,999.16
2018-04-01T01:46:51.055Z,999.18
2018-04-01T01:47:51.107Z,999.17
2018-04-01T01:48:50.899Z,999.27
2018-04-01T01:49:50.942Z,999.20
2018-04-01T01:50:50.735Z,999.22
2018-04-01T01:51:50.714Z,999.19
2018-04-01T01:52:50.650Z,999.15
2018-04-01T01:53:50.623Z,999.17
2018-04-01T01:54:50.440Z,999.15
2018-04-01T01:55:50.430Z,999.17
2018-04-01T01:56:50.278Z,999.17
2018-04-01T01:57:50.244Z,999.16
2018-04-01T01:58:50.094Z,999.22
2018-04-01T01:59:50.046Z,999.19
2018-04-01T02:00:49.944Z,999.18
2018-04-01T02:01:49.993Z,999.19
2018-04-01T02:02:49.779Z,999.15
2018-04-01T02:03:49.768Z,999.15
2018-04-01T02:04:49.609Z,999.14
2018-04-01T02:05:49.709Z,999.16
2018-04-01T02:06:49.444Z,999.15
2018-04-01T02:07:49.427Z,999.15
2018-04-01T02:08:49.285Z,999.13
2018-04-01T02:09:49.302Z,999.13
2018-04-01T02:10:49.121Z,999.14
2018-04-01T02:11:49.105Z,999.11
2018-04-01T02:12:48.977Z,999.11
2018-04-01T02:13:48.917Z,999.10
2018-04-01T02:14:48.800Z,999.08
2018-04-01T02:15:48.834Z,999.07
2018-04-01T02:16:48.668Z,999.10
2018-04-01T02:17:48.704Z,999.16
2018-04-01T02:18:48.472Z,999.15
2018-04-01T02:19:48.439Z,999.16
2018-04-01T02:20:48.309Z,999.18
2018-04-01T02:21:48.309Z,999.16
2018-04-01T02:22:48.182Z,999.20
2018-04-01T02:23:48.191Z,999.21
2018-04-01T02:24:47.989Z,999.24
2018-04-01T02:25:48.067Z,999.22
2018-04-01T02:26:47.828Z,999.26
2018-04-01T02:27:47.786Z,999.28
2018-04-01T02:28:47.794Z,999.28
2018-04-01T02:29:47.685Z,999.31
2018-04-01T02:30:47.505Z,999.31
2018-04-01T02:31:47.551Z,999.31
2018-04-01T02:32:47.370Z,999.33
2018-04-01T02:33:47.351Z,999.30
2018-04-01T02:34:47.180Z,999.29
2018-04-01T02:35:47.213Z,999.33
2018-04-01T02:36:47.020Z,999.30
2018-04-01T02:37:47.035Z,999.31
2018-04-01T02:38:46.879Z,999.30
2018-04-01T02:39:46.829Z,999.33
2018-04-01T02:40:46.703Z,999.28
2018-04-01T02:41:46.752Z,999.23
2018-04-01T02:42:46.536Z,999.19
2018-04-01T02:43:46.588Z,999.18
2018-04-01T02:44:46.383Z,999.13
2018-04-01T02:45:46.356Z,999.17
2018-04-01T02:46:46.204Z,999.17
2018-04-01T02:47:46.171Z,999.16
2018-04-01T02:48:46.069Z,999.12
2018-04-01T02:49:46.107Z,999.09
2018-04-01T02:50:45.891Z,999.10
2018-04-01T02:51:45.881Z,999.11
2018-04-01T02:52:45.736Z,999.13
2018-04-01T02:53:45.724Z,999.12
2018-04-01T02:54:45.562Z,999.15
2018-04-01T02:55:45.606Z,999.12
2018-04-01T02:56:45.401Z,999.13
2018-04-01T02:57:45.418Z,999.10
2018-04-01T02:58:45.329Z,999.10
2018-04-01T02:59:45.233Z,999.13
2018-04-01T03:00:45.091Z,999.12
2018-04-01T03:01:45.124Z,999.13
2018-04-01T03:02:44.910Z,999.11
2018-04-01T03:03:44.948Z,999.13
2018-04-01T03:04:44.776Z,999.15
2018-04-01T03:07:26.637Z,999.12
2018-04-01T03:08:26.645Z,999.16
2018-04-01T03:09:26.478Z,999.12
2018-04-01T03:10:26.453Z,999.16
2018-04-01T03:11:26.308Z,999.16
2018-04-01T03:12:26.261Z,999.15
2018-04-01T03:13:26.144Z,999.19
2018-04-01T03:14:26.198Z,999.20
2018-04-01T03:15:26.006Z,999.18
2018-04-01T03:35:48.459Z,999.35
2018-04-01T03:36:48.281Z,999.32
2018-04-01T03:37:48.242Z,999.35
2018-04-01T03:38:48.116Z,999.29
2018-04-01T03:39:48.150Z,999.29
2018-04-01T03:40:47.996Z,999.33
2018-04-01T03:41:47.987Z,999.35
2018-04-01T03:42:47.814Z,999.40
2018-04-01T03:43:47.779Z,999.31
2018-04-01T03:44:47.637Z,999.43
2018-04-01T03:45:47.675Z,999.47
2018-04-01T03:46:47.492Z,999.47
2018-04-01T03:47:47.484Z,999.58
2018-04-01T03:48:47.311Z,999.46
2018-04-01T03:49:47.291Z,999.44
2018-04-01T03:50:47.154Z,999.50
2018-04-01T03:51:47.143Z,999.54
2018-04-01T03:52:46.992Z,999.48
2018-04-01T03:53:47.010Z,999.56
2018-04-01T03:54:46.829Z,999.59
2018-04-01T03:57:29.148Z,999.56
2018-04-01T03:58:29.124Z,999.60
2018-04-01T03:59:28.993Z,999.65
2018-04-01T04:00:28.938Z,999.62
2018-04-01T04:01:28.812Z,999.66
2018-04-01T04:02:28.895Z,999.59
2018-04-01T04:03:28.648Z,999.61
2018-04-01T04:04:28.659Z,999.61
2018-04-01T04:06:53.165Z,999.66
2018-04-01T04:07:53.144Z,999.65
2018-04-01T04:08:52.990Z,999.67
2018-04-01T04:09:52.955Z,999.67
2018-04-01T04:10:52.810Z,999.67
2018-04-01T04:11:52.816Z,999.67
2018-04-01T04:12:52.669Z,999.67
2018-04-01T04:13:52.704Z,999.64
2018-04-01T04:14:52.493Z,999.69
2018-04-01T04:15:52.482Z,999.67
2018-04-01T04:16:52.324Z,999.71
2018-04-01T04:17:52.317Z,999.70
2018-04-01T04:18:52.158Z,999.69
2018-04-01T04:19:52.201Z,999.73
2018-04-01T04:20:52.004Z,999.77
2018-04-01T04:21:52.016Z,999.73
2018-04-01T04:22:51.854Z,999.74
2018-04-01T04:23:51.817Z,999.77
2018-04-01T04:24:51.669Z,999.80
2018-04-01T04:25:51.782Z,999.74
2018-04-01T04:26:51.512Z,999.76
2018-04-01T04:27:51.567Z,999.77
2018-04-01T04:28:51.343Z,999.76
2018-04-01T04:29:51.350Z,999.83
2018-04-01T04:30:51.215Z,999.78
2018-04-01T04:31:51.157Z,999.79
2018-04-01T04:32:51.031Z,999.78
2018-04-01T04:33:51.077Z,999.75
2018-04-01T04:34:50.869Z,999.78
2018-04-01T04:35:50.908Z,999.80
2018-04-01T04:36:50.734Z,999.83
2018-04-01T04:37:50.714Z,999.85
2018-04-01T04:38:50.562Z,999.83
2018-04-01T04:39:50.495Z,999.81
2018-04-01T04:40:50.377Z,999.78
2018-04-01T04:41:50.402Z,999.81
2018-04-01T04:42:50.241Z,999.79
2018-04-01T04:43:50.205Z,999.80
2018-04-01T04:44:50.045Z,999.77
2018-04-01T04:45:50.018Z,999.81
2018-04-01T04:46:49.888Z,999.82
2018-04-01T04:47:49.949Z,999.81
2018-04-01T04:48:49.739Z,999.84
2018-04-01T04:49:49.732Z,999.88
2018-04-01T04:50:49.560Z,999.85
2018-04-01T04:51:49.552Z,999.85
2018-04-01T04:52:49.397Z,999.87
2018-04-01T04:53:49.381Z,999.87
2018-04-01T04:54:49.233Z,999.84
2018-04-01T04:55:49.289Z,999.87
2018-04-01T04:56:49.068Z,999.88
2018-04-01T04:57:49.071Z,999.85
2018-04-01T04:58:48.915Z,999.91
2018-04-01T04:59:48.913Z,999.87
2018-04-01T05:00:48.769Z,999.86
2018-04-01T05:01:48.791Z,999.89
2018-04-01T05:02:48.601Z,999.88
2018-04-01T05:03:48.629Z,999.91
2018-04-01T05:04:48.422Z,999.90
2018-04-01T05:05:48.450Z,999.90
2018-04-01T05:06:48.255Z,999.91
2018-04-01T05:07:48.214Z,999.91
2018-04-01T05:08:48.090Z,999.92
2018-04-01T05:09:48.156Z,999.97
2018-04-01T05:10:47.935Z,999.96
2018-04-01T05:11:47.937Z,1000.00
2018-04-01T05:12:47.765Z,999.99
2018-04-01T05:13:47.784Z,999.99
2018-04-01T05:14:47.736Z,1000.03
2018-04-01T05:15:47.664Z,1000.00
2018-04-01T05:16:47.446Z,999.99
2018-04-01T05:17:47.489Z,999.98
2018-04-01T05:18:47.298Z,1000.00
2018-04-01T05:19:47.271Z,999.98
2018-04-01T05:20:47.140Z,999.99
2018-04-01T05:21:47.111Z,1000.01
2018-04-01T05:22:46.957Z,1000.04
2018-04-01T05:23:46.987Z,1000.05
2018-04-01T05:24:46.795Z,1000.05
2018-04-01T05:25:46.804Z,1000.03
2018-04-01T05:26:46.632Z,1000.01
2018-04-01T05:27:46.640Z,1000.05
2018-04-01T05:28:46.480Z,1000.09
2018-04-01T05:29:46.516Z,1000.12
2018-04-01T05:30:46.316Z,1000.12
2018-04-01T05:31:46.329Z,1000.15
2018-04-01T05:32:46.161Z,1000.14
2018-04-01T05:33:46.141Z,1000.14
2018-04-01T05:34:46.105Z,1000.18
2018-04-01T05:35:45.946Z,1000.18
2018-04-01T05:36:45.825Z,1000.19
2018-04-01T05:37:45.900Z,1000.22
2018-04-01T05:38:45.688Z,1000.22
2018-04-01T05:39:45.691Z,1000.25
2018-04-01T05:40:45.500Z,1000.24
2018-04-01T05:41:45.468Z,1000.25
2018-04-01T05:42:45.353Z,1000.29
2018-04-01T05:43:45.387Z,1000.28
2018-04-01T05:44:45.199Z,1000.30
2018-04-01T05:45:45.189Z,1000.34
2018-04-01T05:46:45.022Z,1000.31
2018-04-01T05:47:45.028Z,1000.35
2018-04-01T05:48:44.875Z,1000.37
2018-04-01T05:49:44.844Z,1000.36
2018-04-01T05:50:44.694Z,1000.40
2018-04-01T05:51:44.725Z,1000.42
2018-04-01T05:52:44.540Z,1000.42
2018-04-01T05:53:44.524Z,1000.43
2018-04-01T05:54:44.415Z,1000.41
2018-04-01T05:55:44.335Z,1000.44
2018-04-01T05:56:44.208Z,1000.47
2018-04-01T05:57:44.248Z,1000.48
2018-04-01T05:58:44.109Z,1000.46
2018-04-01T05:59:44.052Z,1000.44
2018-04-01T06:00:43.885Z,1000.52
2018-04-01T06:01:43.862Z,1000.46
2018-04-01T06:02:43.727Z,1000.49
2018-04-01T06:03:43.699Z,1000.50
2018-04-01T06:04:43.593Z,1000.48
2018-04-01T06:05:43.582Z,1000.49
2018-04-01T06:06:43.407Z,1000.50
2018-04-01T06:07:43.388Z,1000.50
2018-04-01T06:08:43.241Z,1000.58
2018-04-01T06:09:43.226Z,1000.57
2018-04-01T06:10:43.127Z,1000.64
2018-04-01T06:11:43.109Z,1000.65
2018-04-01T06:12:42.919Z,1000.64
2018-04-01T06:13:43.725Z,1000.57
2018-04-01T06:14:42.782Z,1000.66
2018-04-01T06:15:42.721Z,1000.59
2018-04-01T06:16:42.592Z,1000.63
2018-04-01T06:17:42.645Z,1000.69
2018-04-01T06:18:42.429Z,1000.66
2018-04-01T06:19:42.450Z,1000.69
2018-04-01T06:20:42.288Z,1000.71
2018-04-01T06:21:42.258Z,1000.70
2018-04-01T06:22:42.105Z,1000.72
2018-04-01T06:23:42.070Z,1000.76
2018-04-01T06:24:41.949Z,1000.80
2018-04-01T06:25:42.005Z,1000.74
2018-04-01T06:26:41.798Z,1000.78
2018-04-01T06:27:41.781Z,1000.78
2018-04-01T06:28:41.626Z,1000.80
2018-04-01T06:29:41.596Z,1000.84
2018-04-01T06:30:41.538Z,1000.82
2018-04-01T06:31:41.504Z,1000.86
2018-04-01T06:32:41.295Z,1000.88
2018-04-01T06:33:41.337Z,1000.87
2018-04-01T06:34:41.140Z,1000.87
2018-04-01T06:35:41.171Z,1000.90
2018-04-01T06:36:40.976Z,1000.92
2018-04-01T06:37:40.976Z,1000.92
2018-04-01T06:38:40.820Z,1000.89
2018-04-01T06:39:40.841Z,1000.89
2018-04-01T06:40:40.682Z,1000.91
2018-04-01T06:41:40.654Z,1000.88
2018-04-01T06:42:40.493Z,1000.92
2018-04-01T06:43:40.556Z,1000.89
2018-04-01T06:44:40.328Z,1000.89
2018-04-01T06:45:40.408Z,1000.91
2018-04-01T06:46:40.294Z,1000.87
2018-04-01T06:47:40.240Z,1000.91
2018-04-01T06:48:40.015Z,1000.94
2018-04-01T06:49:39.993Z,1000.95
2018-04-01T06:50:39.879Z,1000.94
2018-04-01T06:51:39.834Z,1000.93
2018-04-01T06:52:39.689Z,1000.95
2018-04-01T06:53:39.709Z,1000.95
2018-04-01T06:54:39.524Z,1000.93
2018-04-01T06:55:39.511Z,1000.96
2018-04-01T06:56:39.383Z,1001.01
2018-04-01T06:57:39.322Z,1001.00
2018-04-01T06:58:39.198Z,1001.02
2018-04-01T06:59:39.230Z,1001.07
2018-04-01T07:00:39.036Z,1001.10
2018-04-01T07:01:39.073Z,1001.09
2018-04-01T07:02:38.882Z,1001.10
2018-04-01T07:03:38.844Z,1001.12
2018-04-01T07:04:38.724Z,1001.16
2018-04-01T07:05:38.765Z,1001.13
2018-04-01T07:06:38.671Z,1001.17
2018-04-01T07:07:38.604Z,1001.15
2018-04-01T07:08:38.408Z,1001.19
2018-04-01T07:09:38.518Z,1001.20
2018-04-01T07:10:38.231Z,1001.20
2018-04-01T07:11:38.206Z,1001.18
2018-04-01T07:12:38.088Z,1001.21
2018-04-01T07:13:38.133Z,1001.25
2018-04-01T07:14:37.907Z,1001.27
2018-04-01T07:15:37.973Z,1001.25
2018-04-01T07:16:37.736Z,1001.31
2018-04-01T07:17:37.752Z,1001.30
2018-04-01T07:18:37.616Z,1001.30
2018-04-01T07:19:37.619Z,1001.33
2018-04-01T07:20:37.437Z,1001.35
2018-04-01T07:21:37.428Z,1001.36
2018-04-01T07:22:37.257Z,1001.42
2018-04-01T07:23:37.305Z,1001.46
2018-04-01T07:24:37.098Z,1001.48
2018-04-01T07:25:37.046Z,1001.45
2018-04-01T07:26:36.930Z,1001.51
2018-04-01T07:27:36.952Z,1001.51
2018-04-01T07:28:37.696Z,1001.47
2018-04-01T07:29:37.845Z,1001.49
2018-04-01T07:30:36.601Z,1001.52
2018-04-01T07:31:36.578Z,1001.51
2018-04-01T07:32:36.460Z,1001.54
2018-04-01T07:33:36.501Z,1001.57
2018-04-01T07:34:36.302Z,1001.54
2018-04-01T07:35:36.318Z,1001.55
2018-04-01T07:36:36.120Z,1001.58
2018-04-01T07:37:36.096Z,1001.60
2018-04-01T07:38:35.959Z,1001.59
2018-04-01T07:39:36.009Z,1001.67
2018-04-01T07:40:35.806Z,1001.67
2018-04-01T07:41:35.859Z,1001.69
2018-04-01T07:42:35.640Z,1001.65
2018-04-01T07:43:35.653Z,1001.73
2018-04-01T07:44:35.468Z,1001.71
2018-04-01T07:45:35.466Z,1001.72
2018-04-01T07:46:35.319Z,1001.74
2018-04-01T07:47:35.290Z,1001.74
2018-04-01T07:48:35.160Z,1001.78
2018-04-01T07:49:35.159Z,1001.75
2018-04-01T07:50:35.013Z,1001.73
2018-04-01T07:51:34.963Z,1001.82
2018-04-01T07:52:34.824Z,1001.80
2018-04-01T07:53:34.866Z,1001.78
2018-04-01T07:54:34.713Z,1001.77
2018-04-01T07:55:34.717Z,1001.79
2018-04-01T07:56:34.498Z,1001.84
2018-04-01T07:57:34.512Z,1001.84
2018-04-01T07:58:34.351Z,1001.87
2018-04-01T07:59:34.404Z,1001.88
2018-04-01T08:00:34.194Z,1001.85
2018-04-01T08:01:34.209Z,1001.89
2018-04-01T08:02:34.025Z,1001.89
2018-04-01T08:03:34.236Z,1001.94
2018-04-01T08:04:33.879Z,1001.91
2018-04-01T08:05:34.487Z,1001.93
2018-04-01T08:06:33.711Z,1001.97
2018-04-01T08:07:33.752Z,1001.96
2018-04-01T08:08:33.530Z,1001.97
2018-04-01T08:09:33.542Z,1002.04
2018-04-01T08:10:33.396Z,1001.99
2018-04-01T08:11:33.350Z,1002.07
2018-04-01T08:12:33.746Z,1002.07
2018-04-01T08:13:33.158Z,1002.11
2018-04-01T08:14:33.053Z,1002.15
2018-04-01T08:15:33.116Z,1002.16
2018-04-01T08:16:32.889Z,1002.16
2018-04-01T08:17:32.895Z,1002.17
2018-04-01T08:18:32.728Z,1002.25
2018-04-01T08:19:32.695Z,1002.21
2018-04-01T08:20:33.281Z,1002.27
2018-04-01T08:21:32.533Z,1002.27
2018-04-01T08:22:32.402Z,1002.32
2018-04-01T08:23:32.412Z,1002.28
2018-04-01T08:24:32.235Z,1002.28
2018-04-01T08:25:32.224Z,1002.33
2018-04-01T08:26:32.083Z,1002.34
2018-04-01T08:27:32.029Z,1002.29
2018-04-01T08:28:31.914Z,1002.28
2018-04-01T08:31:14.267Z,1002.26
2018-04-01T08:32:14.146Z,1002.26
2018-04-01T08:33:14.016Z,1002.36
2018-04-01T08:34:14.058Z,1002.35
2018-04-01T08:35:13.854Z,1002.37
2018-04-01T08:36:13.901Z,1002.42
2018-04-01T08:37:13.727Z,1002.41
2018-04-01T08:38:13.666Z,1002.42
2018-04-01T08:39:13.565Z,1002.40
2018-04-01T08:40:13.583Z,1002.44
2018-04-01T08:41:13.370Z,1002.44
2018-04-01T08:42:13.444Z,1002.43
2018-04-01T08:43:13.203Z,1002.48
2018-04-01T08:44:13.199Z,1002.46
2018-04-01T08:45:13.100Z,1002.52
2018-04-01T08:46:13.009Z,1002.49
2018-04-01T08:47:12.906Z,1002.51
2018-04-01T08:48:12.915Z,1002.50
2018-04-01T08:49:12.729Z,1002.59
2018-04-01T08:50:12.720Z,1002.58
2018-04-01T08:51:12.567Z,1002.59
2018-04-01T08:52:12.588Z,1002.58
2018-04-01T08:53:12.448Z,1002.64
2018-04-01T08:54:12.517Z,1002.66
2018-04-01T08:55:12.252Z,1002.66
2018-04-01T08:56:12.253Z,1002.70
2018-04-01T08:57:12.118Z,1002.68
2018-04-01T08:58:12.060Z,1002.71
2018-04-01T08:59:11.923Z,1002.71
2018-04-01T09:00:11.865Z,1002.77
2018-04-01T09:01:11.760Z,1002.74
2018-04-01T09:02:11.835Z,1002.74
2018-04-01T09:03:11.598Z,1002.73
2018-04-01T09:04:11.630Z,1002.80
2018-04-01T09:05:11.462Z,1002.76
2018-04-01T09:06:11.412Z,1002.75
2018-04-01T09:07:11.286Z,1002.81
2018-04-01T09:08:11.307Z,1002.79
2018-04-01T09:09:11.100Z,1002.76
2018-04-01T09:10:11.116Z,1002.79
2018-04-01T09:11:10.992Z,1002.82
2018-04-01T09:12:10.931Z,1002.80
2018-04-01T09:13:10.815Z,1002.84
2018-04-01T09:14:10.837Z,1002.82
2018-04-01T09:15:10.628Z,1002.86
2018-04-01T09:16:10.637Z,1002.92
2018-04-01T09:17:10.468Z,1002.90
2018-04-01T09:18:10.491Z,1002.93
2018-04-01T09:19:10.295Z,1002.92
2018-04-01T09:21:52.213Z,1002.96
2018-04-01T09:22:52.158Z,1003.00
2018-04-01T09:23:52.051Z,1002.99
2018-04-01T09:24:52.060Z,1003.06
2018-04-01T09:25:51.866Z,1003.07
2018-04-01T09:26:51.885Z,1003.07
2018-04-01T09:27:51.719Z,1003.11
2018-04-01T09:28:51.714Z,1003.17
2018-04-01T09:29:51.548Z,1003.15
2018-04-01T09:30:51.491Z,1003.19
2018-04-01T09:31:51.379Z,1003.16
2018-04-01T09:32:51.317Z,1003.17
2018-04-01T09:33:51.239Z,1003.18
2018-04-01T09:34:51.211Z,1003.18
2018-04-01T09:35:51.064Z,1003.22
2018-04-01T09:36:51.074Z,1003.20
2018-04-01T09:37:50.912Z,1003.20
2018-04-01T09:38:51.009Z,1003.25
2018-04-01T09:39:50.733Z,1003.20
2018-04-01T09:40:50.732Z,1003.22
2018-04-01T09:41:50.587Z,1003.26
2018-04-01T09:42:50.537Z,1003.23
2018-04-01T09:43:50.455Z,1003.26
2018-04-01T09:44:50.525Z,1003.31
2018-04-01T09:45:50.255Z,1003.28
2018-04-01T09:46:50.266Z,1003.28
2018-04-01T09:47:50.206Z,1003.29
2018-04-01T09:48:50.075Z,1003.32
2018-04-01T09:49:49.952Z,1003.30
2018-04-01T09:50:49.876Z,1003.32
2018-04-01T09:51:49.761Z,1003.32
2018-04-01T09:52:49.791Z,1003.32
2018-04-01T09:53:49.603Z,1003.38
2018-04-01T09:54:49.629Z,1003.33
2018-04-01T09:55:49.434Z,1003.34
2018-04-01T09:56:49.416Z,1003.38
2018-04-01T09:57:49.308Z,1003.37
2018-04-01T09:58:49.319Z,1003.39
2018-04-01T09:59:49.131Z,1003.38
2018-04-01T10:00:49.124Z,1003.43
2018-04-01T10:01:48.948Z,1003.45
2018-04-01T10:04:31.198Z,1003.51
2018-04-01T10:05:52.151Z,1003.51
2018-04-01T10:06:31.046Z,1003.57
2018-04-01T10:07:31.045Z,1003.55
2018-04-01T10:08:30.870Z,1003.59
2018-04-01T10:09:30.871Z,1003.61
2018-04-01T10:10:30.732Z,1003.64
2018-04-01T10:11:30.658Z,1003.62
2018-04-01T10:12:30.549Z,1003.68
2018-04-01T10:13:30.571Z,1003.71
2018-04-01T10:14:30.411Z,1003.72
2018-04-01T10:15:30.408Z,1003.72
2018-04-01T10:16:30.240Z,1003.74
2018-04-01T10:17:30.192Z,1003.72
2018-04-01T10:18:30.062Z,1003.72
2018-04-01T10:19:30.108Z,1003.70
2018-04-01T10:20:30.003Z,1003.79
2018-04-01T10:21:29.918Z,1003.82
2018-04-01T10:22:29.742Z,1003.84
2018-04-01T10:23:29.767Z,1003.80
2018-04-01T10:24:29.586Z,1003.82
2018-04-01T10:25:29.536Z,1003.92
2018-04-01T10:26:29.444Z,1003.90
2018-04-01T10:27:29.440Z,1003.94
2018-04-01T10:28:29.260Z,1003.93
2018-04-01T10:29:29.247Z,1003.96
2018-04-01T10:30:29.113Z,1003.98
2018-04-01T10:31:29.081Z,1004.00
2018-04-01T10:32:28.929Z,1003.97
2018-04-01T10:33:28.975Z,1004.02
2018-04-01T10:34:28.765Z,1003.97
2018-04-01T10:35:28.768Z,1004.04
2018-04-01T10:36:28.646Z,1004.00
2018-04-01T10:37:28.587Z,1004.02
2018-04-01T10:38:28.443Z,1004.03
2018-04-01T10:39:28.571Z,1004.08
2018-04-01T10:40:28.286Z,1004.07
2018-04-01T10:41:28.339Z,1004.09
2018-04-01T10:42:28.132Z,1004.12
2018-04-01T10:43:28.136Z,1004.07
2018-04-01T10:44:27.958Z,1004.10
2018-04-01T10:45:27.916Z,1004.16
2018-04-01T10:46:27.833Z,1004.16
2018-04-01T10:47:27.829Z,1004.14
2018-04-01T10:48:27.660Z,1004.23
2018-04-01T10:49:27.674Z,1004.20
2018-04-01T10:50:27.475Z,1004.21
2018-04-01T10:51:27.479Z,1004.22
2018-04-01T10:52:27.343Z,1004.19
2018-04-01T10:53:27.430Z,1004.28
2018-04-01T10:54:27.159Z,1004.28
2018-04-01T10:55:27.170Z,1004.34
2018-04-01T10:56:27.011Z,1004.30
2018-04-01T10:57:26.974Z,1004.34
2018-04-01T10:58:26.844Z,1004.35
2018-04-01T10:59:26.830Z,1004.39
2018-04-01T11:00:26.675Z,1004.41
2018-04-01T11:01:26.695Z,1004.38
2018-04-01T11:02:26.512Z,1004.41
2018-04-01T11:03:26.545Z,1004.43
2018-04-01T11:04:26.348Z,1004.47
2018-04-01T11:05:26.309Z,1004.49
2018-04-01T11:06:26.207Z,1004.50
2018-04-01T11:07:26.233Z,1004.46
2018-04-01T11:08:26.050Z,1004.48
2018-04-01T11:09:26.053Z,1004.50
2018-04-01T11:10:25.874Z,1004.51
2018-04-01T11:11:25.894Z,1004.50
2018-04-01T11:12:25.700Z,1004.51
2018-04-01T11:13:25.683Z,1004.58
2018-04-01T11:14:25.561Z,1004.59
2018-04-01T11:15:25.552Z,1004.61
2018-04-01T11:16:25.490Z,1004.58
2018-04-01T11:17:25.493Z,1004.60
2018-04-01T11:18:25.207Z,1004.64
2018-04-01T11:19:25.212Z,1004.64
2018-04-01T11:20:25.053Z,1004.67
2018-04-01T11:21:25.094Z,1004.67
2018-04-01T11:22:24.885Z,1004.64
2018-04-01T11:23:24.887Z,1004.62
2018-04-01T11:24:24.770Z,1004.67
2018-04-01T11:25:24.725Z,1004.69
2018-04-01T11:26:24.587Z,1004.72
2018-04-01T11:27:24.605Z,1004.71
2018-04-01T11:28:24.417Z,1004.65
2018-04-01T11:29:24.462Z,1004.71
2018-04-01T11:30:24.268Z,1004.74
2018-04-01T11:31:24.228Z,1004.79
2018-04-01T11:32:24.111Z,1004.74
2018-04-01T11:33:24.142Z,1004.78
2018-04-01T11:34:23.951Z,1004.81
2018-04-01T11:35:23.980Z,1004.85
2018-04-01T11:36:23.764Z,1004.86
2018-04-01T11:37:23.776Z,1004.90
2018-04-01T11:38:23.609Z,1004.91
2018-04-01T11:39:23.598Z,1004.89
2018-04-01T11:40:23.472Z,1004.93
2018-04-01T11:41:23.473Z,1004.95
2018-04-01T11:42:23.277Z,1004.96
2018-04-01T11:43:23.902Z,1004.99
2018-04-01T11:44:23.129Z,1004.98
2018-04-01T11:45:23.120Z,1005.00
2018-04-01T11:46:22.966Z,1004.99
2018-04-01T11:47:23.014Z,1004.97
2018-04-01T11:48:22.800Z,1005.03
2018-04-01T11:49:22.884Z,1005.05
2018-04-01T11:50:22.692Z,1005.07
2018-04-01T11:51:22.618Z,1005.08
2018-04-01T11:52:22.472Z,1005.08
2018-04-01T11:53:22.436Z,1005.10
2018-04-01T11:54:22.328Z,1005.12
2018-04-01T11:55:22.342Z,1005.10
2018-04-01T11:56:22.175Z,1005.04
2018-04-01T11:57:22.146Z,1005.06
2018-04-01T11:58:22.021Z,1005.07
2018-04-01T11:59:21.958Z,1005.09
2018-04-01T12:00:21.829Z,1005.12
2018-04-01T12:01:21.895Z,1005.12
2018-04-01T12:02:21.687Z,1005.12
2018-04-01T12:03:21.706Z,1005.10
2018-04-01T12:04:21.514Z,1005.17
2018-04-01T12:05:21.536Z,1005.15
2018-04-01T12:06:21.347Z,1005.25
2018-04-01T12:07:21.398Z,1005.28
2018-04-01T12:08:21.208Z,1005.34
2018-04-01T12:09:21.216Z,1005.45
2018-04-01T12:10:21.026Z,1005.42
2018-04-01T12:11:21.038Z,1005.46
2018-04-01T12:12:20.866Z,1005.49
2018-04-01T12:13:20.930Z,1005.54
2018-04-01T12:14:20.726Z,1005.51
2018-04-01T12:15:20.727Z,1005.46
2018-04-01T12:16:20.609Z,1005.46
2018-04-01T12:17:20.537Z,1005.47
2018-04-01T12:18:20.412Z,1005.40
2018-04-01T12:19:20.352Z,1005.37
2018-04-01T12:20:20.237Z,1005.27
2018-04-01T12:21:20.298Z,1005.28
2018-04-01T12:22:20.093Z,1005.30
2018-04-01T12:23:20.081Z,1005.25
2018-04-01T12:24:19.918Z,1005.31
2018-04-01T12:25:20.008Z,1005.23
2018-04-01T12:26:19.791Z,1005.21
2018-04-01T12:27:19.796Z,1005.25
2018-04-01T12:28:19.678Z,1005.25
2018-04-01T12:29:19.614Z,1005.28
2018-04-01T12:30:19.533Z,1005.24
2018-04-01T12:31:19.554Z,1005.22
2018-04-01T12:32:19.312Z,1005.26
2018-04-01T12:33:19.312Z,1005.22
2018-04-01T12:34:19.139Z,1005.18
2018-04-01T12:35:19.130Z,1005.18
2018-04-01T12:36:18.986Z,1005.19
2018-04-01T12:37:18.959Z,1005.20
2018-04-01T12:38:18.821Z,1005.22
2018-04-01T12:39:18.848Z,1005.25
2018-04-01T12:40:18.659Z,1005.23
2018-04-01T12:41:18.675Z,1005.23
2018-04-01T12:42:18.523Z,1005.25
2018-04-01T12:43:18.453Z,1005.28